createdAt,value
2022-11-13T00:00:54.480Z,102405.97
2022-11-13T00:03:20.751Z,102401.53
2022-11-13T00:05:48.404Z,102402.38
2022-11-13T00:08:14.701Z,102401.72
2022-11-13T00:10:41.009Z,102392.00
2022-11-13T00:13:07.284Z,102402.59
2022-11-13T00:15:33.564Z,102396.34
2022-11-13T00:18:00.689Z,102399.22
2022-11-13T00:20:26.955Z,102387.66
2022-11-13T00:22:54.562Z,102384.38
2022-11-13T00:25:20.849Z,102382.78
2022-11-13T00:27:47.115Z,102387.22
2022-11-13T00:30:18.908Z,102381.28
2022-11-13T00:32:45.678Z,102381.28
2022-11-13T00:35:11.976Z,102377.91
2022-11-13T00:37:38.258Z,102378.19
2022-11-13T00:40:06.694Z,102370.44
2022-11-13T00:42:33.001Z,102372.22
2022-11-13T00:44:59.267Z,102373.31
2022-11-13T00:47:25.563Z,102361.97
2022-11-13T00:49:51.882Z,102362.91
2022-11-13T00:52:18.158Z,102357.72
2022-11-13T00:54:44.464Z,102362.25
2022-11-13T00:57:12.072Z,102357.16
2022-11-13T00:59:38.362Z,102362.66
2022-11-13T01:02:04.684Z,102355.78
2022-11-13T01:04:31.053Z,102356.72
2022-11-13T01:06:57.365Z,102350.66
2022-11-13T01:09:23.765Z,102355.19
2022-11-13T01:11:50.023Z,102356.28
2022-11-13T01:14:17.681Z,102361.66
2022-11-13T01:16:43.971Z,102352.97
2022-11-13T01:19:10.274Z,102350.50
2022-11-13T01:21:36.555Z,102359.47
2022-11-13T01:24:02.966Z,102344.69
2022-11-13T01:26:30.341Z,102347.50
2022-11-13T01:28:57.495Z,102344.97
2022-11-13T01:31:27.898Z,102342.31
2022-11-13T01:33:54.588Z,102339.75
2022-11-13T01:36:21.718Z,102341.66
2022-11-13T01:38:48.193Z,102320.72
2022-11-13T01:41:21.854Z,102331.31
2022-11-13T01:43:49.822Z,102325.25
2022-11-13T01:46:17.591Z,102333.19
2022-11-13T01:48:47.273Z,102327.91
2022-11-13T01:51:16.418Z,102321.84
2022-11-13T01:53:45.241Z,102327.16
2022-11-13T01:56:11.776Z,102322.97
2022-11-13T01:58:39.419Z,102319.72
2022-11-13T02:01:06.338Z,102320.75
2022-11-13T02:03:32.722Z,102317.34
2022-11-13T02:06:00.444Z,102323.56
2022-11-13T02:08:26.974Z,102311.41
2022-11-13T02:10:53.652Z,102317.75
2022-11-13T02:13:20.947Z,102304.06
2022-11-13T02:15:47.651Z,102304.53
2022-11-13T02:18:15.148Z,102304.81
2022-11-13T02:20:53.231Z,102303.22
2022-11-13T02:23:24.625Z,102297.00
2022-11-13T02:25:53.310Z,102296.34
2022-11-13T02:28:19.702Z,102302.47
2022-11-13T02:30:46.030Z,102302.47
2022-11-13T02:33:26.323Z,102298.13
2022-11-13T02:35:52.923Z,102291.16
2022-11-13T02:38:19.417Z,102289.34
2022-11-13T02:40:45.678Z,102289.28
2022-11-13T02:43:13.313Z,102284.84
2022-11-13T02:45:39.576Z,102287.66
2022-11-13T02:48:06.499Z,102294.72
2022-11-13T02:50:33.246Z,102291.25
2022-11-13T02:52:59.611Z,102284.16
2022-11-13T02:55:25.910Z,102279.06
2022-11-13T02:57:52.174Z,102272.09
2022-11-13T03:00:20.079Z,102275.69
2022-11-13T03:02:46.443Z,102278.34
2022-11-13T03:05:13.858Z,102280.97
2022-11-13T03:07:41.026Z,102279.38
2022-11-13T03:10:08.028Z,102272.38
2022-11-13T03:12:34.541Z,102271.44
2022-11-13T03:15:00.852Z,102274.09
2022-11-13T03:17:30.563Z,102277.66
2022-11-13T03:19:56.868Z,102268.91
2022-11-13T03:22:23.149Z,102262.88
2022-11-13T03:24:49.426Z,102261.25
2022-11-13T03:27:15.695Z,102263.91
2022-11-13T03:29:41.987Z,102257.03
2022-11-13T03:32:08.268Z,102261.56
2022-11-13T03:34:35.918Z,102262.59
2022-11-13T03:37:02.261Z,102259.84
2022-11-13T03:39:28.705Z,102257.41
2022-11-13T03:41:54.985Z,102256.47
2022-11-13T03:44:21.296Z,102255.69
2022-11-13T03:46:47.592Z,102248.63
2022-11-13T03:49:13.884Z,102252.13
2022-11-13T03:51:41.635Z,102252.13
2022-11-13T03:54:07.898Z,102246.84
2022-11-13T03:56:34.274Z,102244.97
2022-11-13T03:59:00.550Z,102252.88
2022-11-13T04:01:26.950Z,102248.34
2022-11-13T04:03:53.418Z,102245.81
2022-11-13T04:06:19.730Z,102240.44
2022-11-13T04:08:47.371Z,102232.53
2022-11-13T04:11:13.648Z,102226.31
2022-11-13T04:13:39.945Z,102226.41
2022-11-13T04:16:06.432Z,102224.69
2022-11-13T04:18:32.807Z,102218.66
2022-11-13T04:20:59.445Z,102220.34
2022-11-13T04:23:25.722Z,102220.44
2022-11-13T04:25:53.420Z,102218.75
2022-11-13T04:28:19.700Z,102221.56
2022-11-13T04:30:46.008Z,102227.16
2022-11-13T04:33:12.314Z,102224.59
2022-11-13T04:35:38.581Z,102221.28
2022-11-13T04:38:04.880Z,102218.75
2022-11-13T04:40:31.185Z,102213.47
2022-11-13T04:42:58.859Z,102210.09
2022-11-13T04:45:25.163Z,102202.38
2022-11-13T04:47:51.450Z,102207.81
2022-11-13T04:50:17.849Z,102191.13
2022-11-13T04:52:44.167Z,102199.16
2022-11-13T04:55:11.095Z,102194.16
2022-11-13T04:57:37.577Z,102191.63
2022-11-13T05:00:05.832Z,102189.06
2022-11-13T05:02:32.113Z,102193.50
2022-11-13T05:05:04.388Z,102190.09
2022-11-13T05:07:31.397Z,102187.47
2022-11-13T05:09:57.697Z,102190.19
2022-11-13T05:12:23.978Z,102183.34
2022-11-13T05:14:50.302Z,102186.06
2022-11-13T05:17:17.921Z,102181.09
2022-11-13T05:19:44.224Z,102188.47
2022-11-13T05:22:10.503Z,102184.41
2022-11-13T05:24:36.798Z,102176.94
2022-11-13T05:27:03.141Z,102176.50
2022-11-13T05:29:29.421Z,102189.94
2022-11-13T05:31:55.738Z,102176.91
2022-11-13T05:34:23.455Z,102173.44
2022-11-13T05:36:49.737Z,102168.38
2022-11-13T05:39:16.080Z,102164.97
2022-11-13T05:41:42.340Z,102157.91
2022-11-13T05:44:08.697Z,102156.47
2022-11-13T05:46:34.979Z,102148.78
2022-11-13T05:49:01.769Z,102137.25
2022-11-13T05:51:30.462Z,102138.03
2022-11-13T05:53:57.154Z,102129.19
2022-11-13T05:56:24.417Z,102130.88
2022-11-13T05:58:51.297Z,102131.66
2022-11-13T06:01:18.902Z,102126.47
2022-11-13T06:03:47.650Z,102126.63
2022-11-13T06:06:14.743Z,102128.41
2022-11-13T06:08:42.699Z,102114.53
2022-11-13T06:11:09.811Z,102118.81
2022-11-13T06:13:36.277Z,102108.41
2022-11-13T06:16:03.544Z,102113.06
2022-11-13T06:18:30.529Z,102109.78
2022-11-13T06:21:00.744Z,102105.34
2022-11-13T06:23:27.032Z,102104.50
2022-11-13T06:25:59.293Z,102100.94
2022-11-13T06:28:25.722Z,102104.41
2022-11-13T06:30:52.235Z,102108.66
2022-11-13T06:33:18.527Z,102107.72
2022-11-13T06:35:44.837Z,102104.91
2022-11-13T06:38:11.106Z,102105.63
2022-11-13T06:40:38.010Z,102110.19
2022-11-13T06:43:05.642Z,102108.66
2022-11-13T06:45:31.894Z,102103.00
2022-11-13T06:47:58.179Z,102109.00
2022-11-13T06:50:24.450Z,102114.81
2022-11-13T06:52:50.745Z,102112.25
2022-11-13T06:55:17.018Z,102113.28
2022-11-13T06:57:43.288Z,102105.75
2022-11-13T07:00:11.928Z,102117.22
2022-11-13T07:02:38.191Z,102109.22
2022-11-13T07:05:04.756Z,102115.06
2022-11-13T07:07:31.055Z,102111.31
2022-11-13T07:09:57.354Z,102113.97
2022-11-13T07:12:23.663Z,102103.91
2022-11-13T07:14:49.936Z,102111.34
2022-11-13T07:17:17.548Z,102108.63
2022-11-13T07:19:43.828Z,102112.19
2022-11-13T07:22:10.089Z,102107.03
2022-11-13T07:24:36.385Z,102117.66
2022-11-13T07:27:02.673Z,102121.56
2022-11-13T07:29:28.957Z,102108.50
2022-11-13T07:31:55.261Z,102106.81
2022-11-13T07:34:22.892Z,102099.72
2022-11-13T07:36:49.177Z,102107.63
2022-11-13T07:39:15.474Z,102099.72
2022-11-13T07:41:41.742Z,102099.56
2022-11-13T07:44:09.460Z,102097.69
2022-11-13T07:46:36.260Z,102101.09
2022-11-13T07:49:02.585Z,102099.94
2022-11-13T07:51:30.280Z,102093.75
2022-11-13T07:53:56.692Z,102098.75
2022-11-13T07:56:23.349Z,102091.31
2022-11-13T07:58:49.809Z,102091.81
2022-11-13T08:01:16.191Z,102080.63
2022-11-13T08:03:42.536Z,102083.66
2022-11-13T08:06:09.045Z,102080.44
2022-11-13T08:08:36.706Z,102079.69
2022-11-13T08:11:03.585Z,102080.75
2022-11-13T08:13:29.864Z,102076.91
2022-11-13T08:15:58.404Z,102070.28
2022-11-13T08:18:24.792Z,102074.03
2022-11-13T08:20:51.194Z,102072.31
2022-11-13T08:23:17.462Z,102069.53
2022-11-13T08:25:45.055Z,102065.72
2022-11-13T08:28:13.233Z,102067.97
2022-11-13T08:30:42.546Z,102065.03
2022-11-13T08:33:08.844Z,102055.16
2022-11-13T08:35:35.166Z,102051.34
2022-11-13T08:38:01.897Z,102051.13
2022-11-13T08:40:28.201Z,102050.19
2022-11-13T08:42:59.289Z,102057.03
2022-11-13T08:45:25.650Z,102055.84
2022-11-13T08:47:51.943Z,102059.22
2022-11-13T08:50:18.243Z,102060.75
2022-11-13T08:52:44.562Z,102058.09
2022-11-13T08:55:10.851Z,102050.00
2022-11-13T08:57:37.179Z,102046.66
2022-11-13T09:00:05.364Z,102048.63
2022-11-13T09:02:31.656Z,102046.22
2022-11-13T09:04:57.959Z,102041.94
2022-11-13T09:07:27.377Z,102034.38
2022-11-13T09:09:53.850Z,102039.59
2022-11-13T09:12:20.146Z,102044.19
2022-11-13T09:14:46.448Z,102040.94
2022-11-13T09:17:14.109Z,102038.56
2022-11-13T09:19:40.443Z,102041.34
2022-11-13T09:22:06.796Z,102042.31
2022-11-13T09:24:33.122Z,102035.56
2022-11-13T09:26:59.403Z,102036.53
2022-11-13T09:29:25.718Z,102031.22
2022-11-13T09:31:52.031Z,102030.47
2022-11-13T09:34:19.666Z,102029.50
2022-11-13T09:36:45.930Z,102034.44
2022-11-13T09:39:12.287Z,102026.09
2022-11-13T09:41:41.418Z,102031.72
2022-11-13T09:44:12.858Z,102027.34
2022-11-13T09:46:42.369Z,102021.84
2022-11-13T09:49:14.089Z,102024.34
2022-11-13T09:51:43.561Z,102015.81
2022-11-13T09:54:11.703Z,102020.22
2022-11-13T09:56:40.187Z,102019.19
2022-11-13T09:59:12.607Z,102020.56
2022-11-13T10:01:44.752Z,102022.44
2022-11-13T10:04:14.459Z,102019.25
2022-11-13T10:06:59.889Z,102016.38
2022-11-13T10:09:29.836Z,102014.59
2022-11-13T10:11:57.837Z,102013.81
2022-11-13T10:14:26.857Z,102017.38
2022-11-13T10:16:54.820Z,102021.16
2022-11-13T10:19:25.276Z,102017.53
2022-11-13T10:22:07.605Z,102012.50
2022-11-13T10:24:43.559Z,102004.50
2022-11-13T10:27:10.607Z,102009.72
2022-11-13T10:29:37.340Z,102005.09
2022-11-13T10:32:15.392Z,102004.28
2022-11-13T10:34:43.123Z,102013.94
2022-11-13T10:37:16.994Z,102006.91
2022-11-13T10:39:45.095Z,101998.66
2022-11-13T10:42:20.724Z,101997.22
2022-11-13T10:44:52.268Z,101999.75
2022-11-13T10:47:31.226Z,101997.91
2022-11-13T10:50:09.929Z,101990.59
2022-11-13T10:52:44.039Z,101995.81
2022-11-13T10:55:16.154Z,101992.72
2022-11-13T10:57:45.848Z,101997.91
2022-11-13T11:00:20.573Z,101991.16
2022-11-13T11:02:48.787Z,101972.09
2022-11-13T11:05:16.772Z,101972.66
2022-11-13T11:07:43.106Z,101967.63
2022-11-13T11:10:21.686Z,101966.06
2022-11-13T11:12:51.786Z,101970.84
2022-11-13T11:15:21.787Z,101965.13
2022-11-13T11:17:49.830Z,101966.38
2022-11-13T11:20:20.646Z,101958.66
2022-11-13T11:22:49.226Z,101960.06
2022-11-13T11:25:17.676Z,101956.84
2022-11-13T11:27:47.353Z,101953.19
2022-11-13T11:30:17.360Z,101950.41
2022-11-13T11:32:45.171Z,101951.22
2022-11-13T11:35:14.509Z,101949.41
2022-11-13T11:37:46.532Z,101943.94
2022-11-13T11:40:17.241Z,101939.28
2022-11-13T11:42:47.775Z,101934.38
2022-11-13T11:45:16.020Z,101937.03
2022-11-13T11:47:42.729Z,101930.28
2022-11-13T11:50:12.208Z,101930.28
2022-11-13T11:52:56.983Z,101927.72
2022-11-13T11:55:34.375Z,101923.03
2022-11-13T11:58:07.365Z,101921.75
2022-11-13T12:00:35.893Z,101912.25
2022-11-13T12:03:09.789Z,101911.22
2022-11-13T12:05:42.334Z,101911.03
2022-11-13T12:08:12.661Z,101896.63
2022-11-13T12:10:42.880Z,101892.97
2022-11-13T12:13:25.161Z,101891.53
2022-11-13T12:15:55.564Z,101880.38
2022-11-13T12:18:27.805Z,101878.09
2022-11-13T12:21:01.042Z,101873.69
2022-11-13T12:23:33.844Z,101871.06
2022-11-13T12:26:02.615Z,101857.56
2022-11-13T12:28:38.397Z,101854.44
2022-11-13T12:31:13.996Z,101849.25
2022-11-13T12:33:44.671Z,101838.56
2022-11-13T12:36:11.752Z,101839.41
2022-11-13T12:38:45.590Z,101836.03
2022-11-13T12:41:15.547Z,101833.22
2022-11-13T12:43:57.273Z,101822.97
2022-11-13T12:46:32.526Z,101831.63
2022-11-13T12:48:58.824Z,101818.34
2022-11-13T12:51:25.119Z,101813.47
2022-11-13T12:53:52.399Z,101806.44
2022-11-13T12:56:29.984Z,101811.13
2022-11-13T12:59:28.699Z,101802.88
2022-11-13T13:01:46.818Z,101806.16
2022-11-13T13:04:30.458Z,101800.56
2022-11-13T13:07:04.915Z,101794.31
2022-11-13T13:09:37.400Z,101787.44
2022-11-13T13:12:06.793Z,101786.75
2022-11-13T13:14:46.429Z,101783.72
2022-11-13T13:17:19.693Z,101778.22
2022-11-13T13:19:56.499Z,101774.25
2022-11-13T13:22:27.003Z,101772.13
2022-11-13T13:24:58.869Z,101769.31
2022-11-13T13:27:26.401Z,101771.00
2022-11-13T13:29:54.143Z,101764.81
2022-11-13T13:32:22.995Z,101760.31
2022-11-13T13:34:55.324Z,101757.63
2022-11-13T13:37:25.437Z,101760.31
2022-11-13T13:40:01.745Z,101752.44
2022-11-13T13:42:35.780Z,101747.94
2022-11-13T13:45:23.721Z,101740.78
2022-11-13T13:47:53.189Z,101731.25
2022-11-13T13:50:21.142Z,101733.06
2022-11-13T13:52:52.653Z,101726.75
2022-11-13T13:55:25.376Z,101724.38
2022-11-13T13:57:52.065Z,101729.06
2022-11-13T14:00:20.455Z,101724.38
2022-11-13T14:02:47.772Z,101723.38
2022-11-13T14:05:28.104Z,101727.72
2022-11-13T14:07:54.532Z,101724.06
2022-11-13T14:10:22.016Z,101719.88
2022-11-13T14:12:49.212Z,101716.22
2022-11-13T14:15:21.102Z,101709.34
2022-11-13T14:17:47.368Z,101715.72
2022-11-13T14:20:13.850Z,101710.66
2022-11-13T14:22:42.038Z,101705.63
2022-11-13T14:25:15.063Z,101708.44
2022-11-13T14:27:41.456Z,101710.28
2022-11-13T14:30:22.487Z,101706.31
2022-11-13T14:32:48.779Z,101712.34
2022-11-13T14:35:18.430Z,101708.00
2022-11-13T14:37:45.654Z,101713.34
2022-11-13T14:40:14.863Z,101718.81
2022-11-13T14:42:45.306Z,101715.59
2022-11-13T14:45:15.930Z,101727.59
2022-11-13T14:47:43.824Z,101718.75
2022-11-13T14:50:20.353Z,101710.22
2022-11-13T14:52:55.552Z,101713.88
2022-11-13T14:55:23.219Z,101713.50
2022-11-13T14:57:50.053Z,101709.28
2022-11-13T15:00:16.687Z,101706.09
2022-11-13T15:02:44.437Z,101713.53
2022-11-13T15:05:10.776Z,101714.38
2022-11-13T15:07:39.660Z,101712.56
2022-11-13T15:10:06.256Z,101707.97
2022-11-13T15:12:32.562Z,101709.34
2022-11-13T15:14:58.829Z,101703.56
2022-11-13T15:17:25.130Z,101701.56
2022-11-13T15:19:53.737Z,101695.81
2022-11-13T15:22:27.185Z,101699.66
2022-11-13T15:24:54.159Z,101703.53
2022-11-13T15:27:20.444Z,101699.25
2022-11-13T15:29:46.739Z,101694.97
2022-11-13T15:32:14.541Z,101691.81
2022-11-13T15:34:40.989Z,101683.16
2022-11-13T15:37:12.614Z,101683.22
2022-11-13T15:39:38.937Z,101680.47
2022-11-13T15:42:06.991Z,101675.69
2022-11-13T15:44:33.264Z,101673.78
2022-11-13T15:46:59.550Z,101674.34
2022-11-13T15:49:25.879Z,101672.41
2022-11-13T15:51:52.252Z,101664.19
2022-11-13T15:54:24.642Z,101659.88
2022-11-13T15:56:50.978Z,101659.91
2022-11-13T15:59:17.276Z,101657.06
2022-11-13T16:01:43.656Z,101655.00
2022-11-13T16:04:10.131Z,101662.03
2022-11-13T16:06:36.681Z,101662.16
2022-11-13T16:09:04.232Z,101656.16
2022-11-13T16:11:34.552Z,101658.13
2022-11-13T16:14:01.136Z,101655.59
2022-11-13T16:16:29.760Z,101653.22
2022-11-13T16:19:00.228Z,101658.53
2022-11-13T16:21:27.080Z,101659.19
2022-11-13T16:23:53.388Z,101651.66
2022-11-13T16:26:20.646Z,101644.06
2022-11-13T16:29:14.339Z,101640.16
2022-11-13T16:31:35.429Z,101639.19
2022-11-13T16:34:01.782Z,101638.16
2022-11-13T16:36:28.115Z,101638.72
2022-11-13T16:38:54.416Z,101646.94
2022-11-13T16:41:20.709Z,101641.09
2022-11-13T16:43:48.334Z,101644.13
2022-11-13T16:46:18.354Z,101633.06
2022-11-13T16:48:44.657Z,101643.25
2022-11-13T16:51:11.000Z,101643.06
2022-11-13T16:53:37.298Z,101637.56
2022-11-13T16:56:11.188Z,101636.69
2022-11-13T16:58:37.485Z,101635.53
2022-11-13T17:01:05.980Z,101631.88
2022-11-13T17:03:32.463Z,101630.13
2022-11-13T17:05:58.812Z,101623.66
2022-11-13T17:08:28.007Z,101625.75
2022-11-13T17:10:57.500Z,101618.63
2022-11-13T17:13:23.851Z,101626.72
2022-11-13T17:15:50.152Z,101627.56
2022-11-13T17:18:17.763Z,101621.66
2022-11-13T17:20:44.119Z,101614.06
2022-11-13T17:23:13.360Z,101617.13
2022-11-13T17:25:39.660Z,101610.03
2022-11-13T17:28:05.973Z,101614.19
2022-11-13T17:30:32.372Z,101607.69
2022-11-13T17:32:58.670Z,101603.94
2022-11-13T17:35:26.334Z,101607.44
2022-11-13T17:37:52.632Z,101608.00
2022-11-13T17:40:19.398Z,101606.16
2022-11-13T17:42:45.699Z,101604.94
2022-11-13T17:45:11.979Z,101603.00
2022-11-13T17:47:38.288Z,101598.53
2022-11-13T17:50:07.651Z,101603.84
2022-11-13T17:52:35.415Z,101597.97
2022-11-13T17:55:01.701Z,101595.44
2022-11-13T17:57:29.545Z,101602.97
2022-11-13T17:59:55.835Z,101609.63
2022-11-13T18:02:22.133Z,101602.31
2022-11-13T18:04:48.438Z,101609.25
2022-11-13T18:07:14.828Z,101605.28
2022-11-13T18:09:42.574Z,101590.03
2022-11-13T18:12:08.858Z,101583.81
2022-11-13T18:14:35.125Z,101589.06
2022-11-13T18:17:04.274Z,101581.16
2022-11-13T18:19:30.573Z,101575.63
2022-11-13T18:21:57.286Z,101568.31
2022-11-13T18:24:25.362Z,101573.53
2022-11-13T18:26:52.974Z,101569.00
2022-11-13T18:29:21.738Z,101563.94
2022-11-13T18:31:48.074Z,101554.31
2022-11-13T18:34:15.864Z,101555.28
2022-11-13T18:36:44.804Z,101552.50
2022-11-13T18:39:16.774Z,101553.22
2022-11-13T18:41:43.450Z,101556.47
2022-11-13T18:44:11.085Z,101558.84
2022-11-13T18:46:37.397Z,101553.44
2022-11-13T18:49:03.821Z,101559.69
2022-11-13T18:51:30.144Z,101558.63
2022-11-13T18:53:56.863Z,101546.94
2022-11-13T18:56:24.046Z,101546.34
2022-11-13T18:58:51.405Z,101537.22
2022-11-13T19:01:22.676Z,101545.53
2022-11-13T19:06:36.496Z,101542.91
2022-11-13T19:09:04.442Z,101537.91
2022-11-13T19:11:30.934Z,101533.94
2022-11-13T19:13:57.618Z,101527.44
2022-11-13T19:16:26.068Z,101529.13
2022-11-13T19:18:53.140Z,101518.56
2022-11-13T19:21:20.307Z,101516.63
2022-11-13T19:23:46.606Z,101503.91
2022-11-13T19:26:12.931Z,101499.69
2022-11-13T19:28:39.504Z,101498.63
2022-11-13T19:31:06.401Z,101497.44
2022-11-13T19:33:34.248Z,101505.13
2022-11-13T19:36:05.019Z,101503.56
2022-11-13T19:38:31.486Z,101499.84
2022-11-13T19:40:57.998Z,101502.25
2022-11-13T19:43:24.719Z,101500.22
2022-11-13T19:45:51.032Z,101502.47
2022-11-13T19:48:19.141Z,101502.47
2022-11-13T19:50:46.749Z,101503.31
2022-11-13T19:53:14.140Z,101497.69
2022-11-13T19:55:40.452Z,101491.66
2022-11-13T19:58:06.751Z,101488.91
2022-11-13T20:00:33.023Z,101488.06
2022-11-13T20:03:02.561Z,101480.88
2022-11-13T20:05:31.351Z,101482.66
2022-11-13T20:07:58.971Z,101481.09
2022-11-13T20:10:25.248Z,101466.31
2022-11-13T20:12:51.533Z,101475.22
2022-11-13T20:15:17.819Z,101469.22
2022-11-13T20:17:44.090Z,101472.22
2022-11-13T20:20:10.659Z,101471.75
2022-11-13T20:22:36.941Z,101471.16
2022-11-13T20:25:04.916Z,101468.97
2022-11-13T20:27:31.196Z,101471.50
2022-11-13T20:29:57.487Z,101472.22
2022-11-13T20:32:23.793Z,101468.63
2022-11-13T20:34:50.113Z,101457.09
2022-11-13T20:37:16.392Z,101449.16
2022-11-13T20:39:44.747Z,101457.09
2022-11-13T20:42:12.378Z,101450.00
2022-11-13T20:44:38.707Z,101451.41
2022-11-13T20:47:05.061Z,101459.22
2022-11-13T20:49:31.344Z,101451.19
2022-11-13T20:51:57.640Z,101442.28
2022-11-13T20:54:23.945Z,101448.19
2022-11-13T20:56:50.234Z,101440.97
2022-11-13T20:59:17.874Z,101442.66
2022-11-13T21:01:44.229Z,101430.25
2022-11-13T21:04:10.548Z,101432.09
2022-11-13T21:06:36.859Z,101439.03
2022-11-13T21:09:03.131Z,101430.13
2022-11-13T21:11:29.428Z,101419.81
2022-11-13T21:13:55.714Z,101424.03
2022-11-13T21:16:23.882Z,101426.22
2022-11-13T21:18:50.162Z,101422.72
2022-11-13T21:21:17.689Z,101412.63
2022-11-13T21:23:44.061Z,101416.94
2022-11-13T21:26:10.435Z,101415.75
2022-11-13T21:28:37.083Z,101416.47
2022-11-13T21:31:04.583Z,101402.88
2022-11-13T21:33:35.097Z,101398.31
2022-11-13T21:36:04.864Z,101400.81
2022-11-13T21:38:31.391Z,101398.03
2022-11-13T21:40:58.414Z,101398.16
2022-11-13T21:43:24.775Z,101399.81
2022-11-13T21:45:51.087Z,101391.13
2022-11-13T21:48:17.485Z,101390.88
2022-11-13T21:50:45.128Z,101387.25
2022-11-13T21:53:11.884Z,101386.03
2022-11-13T21:55:38.171Z,101386.47
2022-11-13T21:58:04.449Z,101381.66
2022-11-13T22:00:30.723Z,101377.66
2022-11-13T22:02:56.988Z,101373.66
2022-11-13T22:05:23.264Z,101366.41
2022-11-13T22:07:50.890Z,101368.22
2022-11-13T22:10:17.231Z,101366.66
2022-11-13T22:12:43.506Z,101366.66
2022-11-13T22:15:10.621Z,101366.75
2022-11-13T22:17:36.889Z,101361.47
2022-11-13T22:20:03.431Z,101366.22
2022-11-13T22:22:29.781Z,101359.16
2022-11-13T22:24:57.388Z,101356.53
2022-11-13T22:27:23.668Z,101356.63
2022-11-13T22:29:49.960Z,101358.47
2022-11-13T22:32:16.241Z,101360.56
2022-11-13T22:34:42.533Z,101366.59
2022-11-13T22:37:08.799Z,101362.03
2022-11-13T22:39:35.138Z,101349.56
2022-11-13T22:42:02.775Z,101355.69
2022-11-13T22:44:51.240Z,101346.94
2022-11-13T22:47:15.289Z,101344.44
2022-11-13T22:49:41.581Z,101350.09
2022-11-13T22:52:07.842Z,101337.19
2022-11-13T22:54:34.135Z,101344.66
2022-11-13T22:57:00.402Z,101340.75
2022-11-13T22:59:28.016Z,101334.31
2022-11-13T23:01:54.308Z,101340.31
2022-11-13T23:04:20.589Z,101335.63
2022-11-13T23:06:46.949Z,101339.00
2022-11-13T23:09:13.245Z,101331.94
2022-11-13T23:11:40.168Z,101330.13
2022-11-13T23:14:08.092Z,101326.66
2022-11-13T23:16:35.859Z,101327.50
2022-11-13T23:19:02.542Z,101319.59
2022-11-13T23:21:29.537Z,101306.50
2022-11-13T23:23:56.319Z,101298.47
2022-11-13T23:26:22.875Z,101303.53
2022-11-13T23:28:49.183Z,101297.31
2022-11-13T23:31:15.802Z,101296.34
2022-11-13T23:33:43.703Z,101296.34
2022-11-13T23:36:10.854Z,101292.72
2022-11-13T23:38:37.150Z,101286.50
2022-11-13T23:41:03.849Z,101288.19
2022-11-13T23:43:54.336Z,101280.38
2022-11-13T23:46:16.714Z,101290.25
2022-11-13T23:48:44.322Z,101280.03
2022-11-13T23:51:10.634Z,101276.44
2022-11-13T23:53:36.990Z,101276.53
2022-11-13T23:56:03.299Z,101280.34
2022-11-13T23:58:31.100Z,101279.78
